UZAYTEM FTO


Yükleniyor...
LTFH 230750Z 29008KT 9999 SCT036 BKN100 26/19 Q1014 NOSIG

TAF LTFH 230740Z 2309/2318 30009KT 9999 SCT036 BKN100
Satellite Rain Picture: TURKEY

Satellite Cloud Picture: TURKEY